Asheboro, NC

3:31 AM EST on February 27, 2017 (GMT -0500)
Asheboro Municipal

Weather History for KHBI - January, 2013

Change the Weather History Date:

Thursday, January 31, 2013

  Actual Average Record
Temperature  
Mean Temperature 43 °F -  
Max Temperature 53 °F 54 °F 78 °F (1975)
Min Temperature 33 °F 32 °F 5 °F (1966)
Degree Days  
Heating Degree Days 22    
Moisture  
Dew Point 25 °F    
Average Humidity 51    
Maximum Humidity 88    
Minimum Humidity 29    
Precipitation  
Precipitation 0.00 in - - ()
Sea Level Pressure  
Sea Level Pressure 29.86 in    
Wind  
Wind Speed 11 mph (WSW)    
Max Wind Speed 18 mph    
Max Gust Speed 36 mph    
Visibility 10 miles    
Events Rain    
Averages and records for this station are not official NWS values.
T = Trace of Precipitation, MM = Missing Value Source: NWS Daily Summary

Daily Weather History Graph

Daily Weather History Graph

Search for Another Location

Airport or City:

Trip Planner

Search our weather history database for the weather conditions in past years. The results will help you decide how hot, cold, wet, or windy it might be!

Date:

Astronomy

Jan. 31, 2013 Rise Set
Actual Time 7:20 AM EST 5:46 PM EST
Civil Twilight 6:53 AM EST 6:13 PM EST
Nautical Twilight 6:22 AM EST 6:43 PM EST
Astronomical Twilight 5:52 AM EST 7:13 PM EST
Moon 10:34 PM EST (1/31) 9:30 AM EST (1/31)
Length of Visible Light 11h 20m
Length of Day
10h 26m
Waning Gibbous, 80% of the Moon is Illuminated
Jan 31
Waning Gibbous
Feb 3
Last Quarter
Feb 10
New
Feb 17
First Quarter
Feb 25
Full

Hourly Weather History & Observations

Time (EST) Temp. Windchill Dew Point Humidity Pressure Visibility Wind Dir Wind Speed Gust Speed Precip Events Conditions
12:37 AM 53.6 °F - 50.0 °F 88% 29.54 in 10.0 mi SSW 17.3 mph 20.7 mph 0.03 in   Overcast
12:57 AM 51.8 °F - 48.2 °F 88% 29.54 in 10.0 mi SSW 17.3 mph 26.5 mph N/A   Light Drizzle
1:17 AM 51.8 °F - 46.4 °F 82% 29.55 in 10.0 mi SSW 17.3 mph 26.5 mph N/A   Overcast
1:37 AM 51.8 °F - 46.4 °F 82% 29.55 in 10.0 mi SSW 17.3 mph 28.8 mph N/A   Overcast
2:00 AM 51.8 °F - 44.6 °F 76% 29.56 in 10.0 mi SW 13.8 mph 25.3 mph N/A   Overcast
2:17 AM 50.0 °F - 44.6 °F 82% 29.56 in 10.0 mi SW 15.0 mph 25.3 mph N/A   Mostly Cloudy
2:37 AM 50.0 °F - 44.6 °F 82% 29.56 in 10.0 mi SW 12.7 mph 25.3 mph N/A   Mostly Cloudy
2:57 AM 50.0 °F - 42.8 °F 76% 29.58 in 10.0 mi SW 15.0 mph 21.9 mph N/A   Overcast
3:17 AM 50.0 °F - 42.8 °F 76% 29.59 in 10.0 mi SW 9.2 mph 23.0 mph N/A   Overcast
3:37 AM 48.2 °F - 42.8 °F 82% 29.60 in 10.0 mi SW 9.2 mph 25.3 mph N/A Rain Rain
3:58 AM 48.2 °F - 42.8 °F 82% 29.62 in 7.0 mi SW 11.5 mph 24.2 mph N/A Rain Light Rain
4:17 AM 46.4 °F 41.5 °F 41.0 °F 81% 29.64 in 10.0 mi WSW 10.4 mph 19.6 mph N/A Rain Light Rain
4:38 AM 46.4 °F 41.9 °F 41.0 °F 81% 29.65 in 10.0 mi SW 9.2 mph 18.4 mph N/A Rain Light Rain
4:57 AM 46.4 °F 43.5 °F 39.2 °F 76% 29.66 in 10.0 mi WSW 5.8 mph - N/A   Overcast
5:17 AM 46.4 °F 40.1 °F 35.6 °F 66% 29.67 in 10.0 mi West 15.0 mph 24.2 mph N/A   Overcast
5:37 AM 46.4 °F 43.5 °F 32.0 °F 57% 29.69 in 10.0 mi WSW 5.8 mph 17.3 mph N/A   Overcast
5:58 AM 46.4 °F 41.5 °F 32.0 °F 57% 29.71 in 10.0 mi West 10.4 mph 19.6 mph N/A   Scattered Clouds
6:17 AM 44.6 °F 38.4 °F 30.2 °F 57% 29.73 in 10.0 mi West 12.7 mph 24.2 mph N/A   Clear
6:37 AM 44.6 °F 38.8 °F 28.4 °F 53% 29.76 in 10.0 mi West 11.5 mph 25.3 mph N/A   Clear
6:57 AM 42.8 °F 38.0 °F 26.6 °F 53% 29.78 in 10.0 mi West 8.1 mph 19.6 mph N/A   Clear
7:17 AM 42.8 °F 39.3 °F 26.6 °F 53% 29.79 in 10.0 mi West 5.8 mph - N/A   Clear
7:37 AM 41.0 °F 38.0 °F 26.6 °F 57% 29.81 in 10.0 mi West 4.6 mph - N/A   Clear
7:57 AM 39.2 °F 35.0 °F 26.6 °F 61% 29.83 in 10.0 mi West 5.8 mph - N/A   Clear
8:17 AM 39.2 °F 33.0 °F 24.8 °F 56% 29.85 in 10.0 mi West 9.2 mph - N/A   Clear
8:57 AM 41.0 °F 34.3 °F 24.8 °F 53% 29.88 in 10.0 mi West 11.5 mph 17.3 mph N/A   Clear
9:17 AM 41.0 °F 34.7 °F 24.8 °F 53% 29.89 in 10.0 mi West 10.4 mph 19.6 mph N/A   Clear
9:57 AM 42.8 °F 37.5 °F 24.8 °F 49% 29.90 in 10.0 mi West 9.2 mph 18.4 mph N/A   Clear
10:17 AM 42.8 °F 37.5 °F 23.0 °F 46% 29.91 in 10.0 mi West 9.2 mph 18.4 mph N/A   Clear
10:37 AM 42.8 °F 37.5 °F 21.2 °F 42% 29.92 in 10.0 mi West 9.2 mph 16.1 mph N/A   Clear
10:57 AM 42.8 °F 37.0 °F 19.4 °F 39% 29.93 in 10.0 mi West 10.4 mph 21.9 mph N/A   Clear
11:17 AM 42.8 °F 35.8 °F 17.6 °F 36% 29.93 in 10.0 mi WNW 13.8 mph 20.7 mph N/A   Clear
11:37 AM 42.8 °F 37.5 °F 19.4 °F 39% 29.92 in 10.0 mi WSW 9.2 mph 23.0 mph N/A   Clear
11:57 AM 44.6 °F 37.8 °F 17.6 °F 34% 29.92 in 10.0 mi WNW 15.0 mph 24.2 mph N/A   Clear
12:17 PM 44.6 °F 39.2 °F 17.6 °F 34% 29.92 in 10.0 mi WNW 10.4 mph 23.0 mph N/A   Clear
12:37 PM 44.6 °F 36.9 °F 19.4 °F 37% 29.92 in 10.0 mi West 18.4 mph 25.3 mph N/A   Clear
1:17 PM 44.6 °F 38.8 °F 17.6 °F 34% 29.91 in 10.0 mi West 11.5 mph 24.2 mph N/A   Clear
1:37 PM 46.4 °F 42.4 °F 17.6 °F 32% 29.91 in 10.0 mi WSW 8.1 mph 17.3 mph N/A   Scattered Clouds
1:57 PM 46.4 °F 39.2 °F 17.6 °F 32% 29.91 in 10.0 mi SW 18.4 mph 27.6 mph N/A   Scattered Clouds
2:20 PM 46.4 °F 41.1 °F 17.6 °F 32% 29.91 in 10.0 mi WNW 11.5 mph 20.7 mph N/A   Scattered Clouds
2:37 PM 46.4 °F 40.1 °F 15.8 °F 29% 29.92 in 10.0 mi WSW 15.0 mph 35.7 mph N/A   Scattered Clouds
2:57 PM 46.4 °F 42.4 °F 17.6 °F 32% 29.93 in 10.0 mi West 8.1 mph 20.7 mph N/A   Clear
3:17 PM 46.4 °F 41.1 °F 17.6 °F 32% 29.94 in 10.0 mi West 11.5 mph 21.9 mph N/A   Scattered Clouds
3:37 PM 46.4 °F 40.4 °F 17.6 °F 32% 29.95 in 10.0 mi WSW 13.8 mph 19.6 mph N/A   Clear
3:57 PM 44.6 °F 38.4 °F 17.6 °F 34% 29.96 in 10.0 mi WSW 12.7 mph 24.2 mph N/A   Clear
4:17 PM 46.4 °F 41.9 °F 19.4 °F 34% 29.96 in 10.0 mi West 9.2 mph 17.3 mph N/A   Clear
4:37 PM 46.4 °F 41.9 °F 19.4 °F 34% 29.97 in 10.0 mi West 9.2 mph - N/A   Clear
4:57 PM 46.4 °F 41.9 °F 17.6 °F 32% 29.97 in 10.0 mi West 9.2 mph - N/A   Clear
5:17 PM 44.6 °F 39.7 °F 17.6 °F 34% 29.98 in 10.0 mi West 9.2 mph 16.1 mph N/A   Clear
5:37 PM 44.6 °F 40.7 °F 17.6 °F 34% 29.99 in 10.0 mi West 6.9 mph - N/A   Clear
5:57 PM 42.8 °F 38.6 °F 17.6 °F 36% 29.99 in 10.0 mi West 6.9 mph - N/A   Clear
6:17 PM 42.8 °F 40.1 °F 17.6 °F 36% 30.01 in 10.0 mi NW 4.6 mph - N/A   Clear
6:37 PM 42.8 °F 40.1 °F 17.6 °F 36% 30.01 in 10.0 mi West 4.6 mph - N/A   Clear
6:57 PM 41.0 °F - 17.6 °F 39% 30.02 in 10.0 mi Calm Calm - N/A   Clear
7:17 PM 41.0 °F 37.1 °F 15.8 °F 36% 30.02 in 10.0 mi West 5.8 mph - N/A   Clear
7:37 PM 41.0 °F 39.0 °F 15.8 °F 36% 30.03 in 10.0 mi WSW 3.5 mph - N/A   Clear
7:57 PM 39.2 °F 35.9 °F 15.8 °F 39% 30.03 in 10.0 mi SW 4.6 mph - N/A   Clear
8:17 PM 39.2 °F 37.0 °F 17.6 °F 42% 30.04 in 10.0 mi SW 3.5 mph - N/A   Clear
8:37 PM 39.2 °F 35.0 °F 17.6 °F 42% 30.04 in 10.0 mi SSW 5.8 mph - N/A   Clear
8:57 PM 37.4 °F 33.8 °F 19.4 °F 48% 30.04 in 10.0 mi SW 4.6 mph - N/A   Clear
9:17 PM 37.4 °F - 19.4 °F 48% 30.02 in 10.0 mi Calm Calm - N/A   Clear
9:37 PM 37.4 °F - 17.6 °F 45% 30.02 in 10.0 mi Calm Calm - N/A   Clear
9:57 PM 39.2 °F 37.0 °F 17.6 °F 42% 30.03 in 10.0 mi SW 3.5 mph - N/A   Clear
10:17 PM 37.4 °F 33.8 °F 17.6 °F 45% 30.04 in 10.0 mi SSW 4.6 mph - N/A   Clear
10:37 PM 33.8 °F - 21.2 °F 60% 30.04 in 10.0 mi Calm Calm - N/A   Clear
10:57 PM 33.8 °F 30.8 °F 23.0 °F 65% 30.04 in 10.0 mi South 3.5 mph - N/A   Clear
11:17 PM 33.8 °F 30.8 °F 21.2 °F 60% 30.04 in 10.0 mi South 3.5 mph - N/A   Clear
11:37 PM 35.6 °F - 19.4 °F 52% 30.03 in 10.0 mi Calm Calm - N/A   Clear
11:57 PM 35.6 °F 31.7 °F 19.4 °F 52% 30.03 in 10.0 mi SSW 4.6 mph - N/A   Clear